Time;durP1;ratioP1;P1;durP2;ratioP2;P2;SDS_P1;SDS_P2;PMS_P1;PMS_P2;Temp;Humidity;BMP_temperature;BMP_pressure;BME280_temperature;BME280_humidity;BME280_pressure;Samples;Min_cycle;Max_cycle;Signal;HPM_P1;HPM_P2
2021/06/19 00:00:12;;;;;;;11.93;5.70;;;;;;;;;;4991708;28;20400;-49
2021/06/19 00:02:38;;;;;;;8.93;4.80;;;;;;;;;;4991581;28;20432;-50
2021/06/19 00:05:05;;;;;;;13.90;5.07;;;;;;;;;;4991639;28;20932;-50
2021/06/19 00:07:31;;;;;;;6.80;5.50;;;;;;;;;;4991425;28;20412;-51
2021/06/19 00:09:57;;;;;;;7.07;5.77;;;;;;;;;;4974179;28;20434;-51
2021/06/19 00:12:23;;;;;;;7.30;4.93;;;;;;;;;;4991224;28;20432;-54
2021/06/19 00:14:49;;;;;;;6.67;4.73;;;;;;;;;;4991679;28;20486;-53
2021/06/19 00:17:15;;;;;;;15.03;6.17;;;;;;;;;;4991197;28;20436;-52
2021/06/19 00:19:41;;;;;;;7.83;5.07;;;;;;;;;;4991421;28;20400;-53
2021/06/19 00:22:07;;;;;;;10.40;5.30;;;;;;;;;;4991283;28;20420;-54
2021/06/19 00:24:37;;;;;;;7.10;4.80;;;;;;;;;;4991421;28;20462;-54
2021/06/19 00:27:04;;;;;;;6.63;5.00;;;;;;;;;;4991060;28;20918;-52
2021/06/19 00:29:32;;;;;;;10.93;5.40;;;;;;;;;;4991451;28;20404;-49
2021/06/19 00:31:58;;;;;;;5.73;5.00;;;;;;;;;;4991310;28;20424;-49
2021/06/19 00:34:25;;;;;;;9.20;5.00;;;;;;;;;;4991374;28;20451;-49
2021/06/19 00:36:51;;;;;;;4.90;4.40;;;;;;;;;;4991435;28;20427;-49
2021/06/19 00:39:17;;;;;;;8.30;5.20;;;;;;;;;;4991477;28;20411;-49
2021/06/19 00:41:43;;;;;;;6.00;4.83;;;;;;;;;;4991682;28;20963;-49
2021/06/19 00:44:19;;;;;;;6.80;5.70;;;;;;;;;;4991387;28;20411;-49
2021/06/19 00:46:53;;;;;;;6.13;4.67;;;;;;;;;;4994826;28;20424;-54
2021/06/19 00:49:19;;;;;;;8.33;4.00;;;;;;;;;;4995301;28;20399;-49
2021/06/19 00:51:45;;;;;;;5.23;4.37;;;;;;;;;;4995220;28;20904;-50
2021/06/19 00:54:12;;;;;;;7.00;4.27;;;;;;;;;;4994900;28;20429;-49
2021/06/19 00:56:38;;;;;;;3.93;3.33;;;;;;;;;;4995005;28;20427;-52
2021/06/19 00:59:07;;;;;;;4.67;3.67;;;;;;;;;;4995025;28;20900;-52
2021/06/19 01:01:33;;;;;;;6.40;3.90;;;;;;;;;;4994476;28;20935;-49
2021/06/19 01:04:01;;;;;;;7.03;3.23;;;;;;;;;;4994279;28;20424;-48
2021/06/19 01:06:27;;;;;;;6.43;3.50;;;;;;;;;;4994142;28;20438;-50
2021/06/19 01:08:53;;;;;;;5.90;3.83;;;;;;;;;;4994368;28;20427;-49
2021/06/19 01:11:22;;;;;;;5.40;3.60;;;;;;;;;;4994735;28;20817;-50
2021/06/19 01:13:48;;;;;;;7.33;3.50;;;;;;;;;;4994560;28;20402;-50
2021/06/19 01:16:15;;;;;;;3.50;3.30;;;;;;;;;;4994454;28;20454;-50
2021/06/19 01:18:41;;;;;;;5.87;4.30;;;;;;;;;;4994447;28;20420;-52
2021/06/19 01:21:17;;;;;;;3.83;3.53;;;;;;;;;;4994488;28;20489;-52
2021/06/19 01:23:43;;;;;;;6.33;3.80;;;;;;;;;;4994371;28;20892;-49
2021/06/19 01:26:12;;;;;;;7.50;3.27;;;;;;;;;;4994377;28;20404;-49
2021/06/19 01:28:38;;;;;;;8.53;3.87;;;;;;;;;;4994386;28;20974;-52
2021/06/19 01:31:05;;;;;;;3.80;3.40;;;;;;;;;;4994350;28;20419;-53
2021/06/19 01:33:31;;;;;;;4.33;3.03;;;;;;;;;;4994138;28;20408;-50
2021/06/19 01:35:57;;;;;;;8.37;3.60;;;;;;;;;;4994078;28;20967;-52
2021/06/19 01:38:23;;;;;;;3.97;3.67;;;;;;;;;;4994301;28;20412;-52
2021/06/19 01:40:49;;;;;;;3.00;2.73;;;;;;;;;;4994173;28;20404;-52
2021/06/19 01:43:15;;;;;;;3.27;2.97;;;;;;;;;;4994074;28;20474;-52
2021/06/19 01:45:41;;;;;;;3.00;2.80;;;;;;;;;;4994081;28;20416;-52
2021/06/19 01:48:08;;;;;;;3.10;2.80;;;;;;;;;;4993858;28;20423;-50
2021/06/19 01:50:34;;;;;;;3.03;2.47;;;;;;;;;;4994020;28;20416;-49
2021/06/19 01:53:01;;;;;;;3.37;2.77;;;;;;;;;;4993789;28;20459;-50
2021/06/19 01:55:27;;;;;;;4.00;2.67;;;;;;;;;;4993778;28;20533;-49
2021/06/19 01:57:54;;;;;;;3.10;2.80;;;;;;;;;;4993597;28;20412;-51
2021/06/19 02:00:20;;;;;;;3.33;2.87;;;;;;;;;;4993799;28;20843;-51
2021/06/19 02:02:46;;;;;;;3.50;2.80;;;;;;;;;;4993674;28;20950;-52
2021/06/19 02:05:13;;;;;;;3.07;2.77;;;;;;;;;;4993728;28;20408;-53
2021/06/19 02:07:52;;;;;;;3.13;2.83;;;;;;;;;;4993602;28;20500;-50
2021/06/19 02:10:19;;;;;;;2.93;2.60;;;;;;;;;;4993593;28;20953;-50
2021/06/19 02:12:45;;;;;;;3.53;2.80;;;;;;;;;;4993556;28;20435;-51
2021/06/19 02:15:11;;;;;;;3.00;2.83;;;;;;;;;;4993340;28;20463;-49
2021/06/19 02:17:38;;;;;;;2.97;2.77;;;;;;;;;;4993370;28;20454;-52
2021/06/19 02:20:05;;;;;;;3.13;2.93;;;;;;;;;;4993417;28;20407;-52
2021/06/19 02:22:31;;;;;;;2.90;2.70;;;;;;;;;;4993637;28;20825;-52
2021/06/19 02:24:57;;;;;;;7.63;3.33;;;;;;;;;;4993337;28;20409;-52
2021/06/19 02:27:23;;;;;;;5.10;2.80;;;;;;;;;;4993284;28;20975;-49
2021/06/19 02:29:50;;;;;;;4.73;2.97;;;;;;;;;;4993217;28;20467;-50
2021/06/19 02:32:16;;;;;;;3.03;2.83;;;;;;;;;;4993189;28;21051;-51
2021/06/19 02:34:42;;;;;;;5.93;3.63;;;;;;;;;;4993306;28;20452;-52
2021/06/19 02:37:08;;;;;;;2.87;2.67;;;;;;;;;;4992973;28;20896;-53
2021/06/19 02:39:34;;;;;;;3.20;2.73;;;;;;;;;;4993222;28;20819;-52
2021/06/19 02:42:00;;;;;;;6.60;2.90;;;;;;;;;;4993037;28;20420;-53
2021/06/19 02:44:26;;;;;;;5.47;3.53;;;;;;;;;;4993109;28;20408;-54
2021/06/19 02:46:52;;;;;;;6.63;3.23;;;;;;;;;;4993000;28;20409;-49
2021/06/19 02:49:18;;;;;;;3.30;3.00;;;;;;;;;;4993386;28;20412;-49
2021/06/19 02:51:44;;;;;;;4.43;3.30;;;;;;;;;;4993151;28;20424;-50
2021/06/19 02:54:10;;;;;;;4.63;3.30;;;;;;;;;;4993044;28;20478;-49
2021/06/19 02:56:36;;;;;;;3.83;2.80;;;;;;;;;;4992814;28;20430;-49
2021/06/19 02:59:02;;;;;;;4.53;3.23;;;;;;;;;;4992977;28;20400;-49
2021/06/19 03:01:28;;;;;;;7.07;3.50;;;;;;;;;;4992637;28;20420;-49
2021/06/19 03:03:53;;;;;;;2.93;2.73;;;;;;;;;;4992779;28;20443;-49
2021/06/19 03:06:19;;;;;;;3.80;3.40;;;;;;;;;;4992429;28;20404;-49
2021/06/19 03:08:45;;;;;;;3.57;3.27;;;;;;;;;;4991920;28;20470;-50
2021/06/19 03:11:11;;;;;;;3.10;2.90;;;;;;;;;;4992457;28;20409;-51
2021/06/19 03:13:37;;;;;;;3.27;3.07;;;;;;;;;;4992513;28;20404;-51
2021/06/19 03:16:03;;;;;;;4.13;3.40;;;;;;;;;;4992104;28;20457;-51
2021/06/19 03:18:29;;;;;;;7.63;4.10;;;;;;;;;;4992531;28;20412;-53
2021/06/19 03:20:56;;;;;;;4.03;3.07;;;;;;;;;;4992354;28;20635;-53
2021/06/19 03:23:22;;;;;;;4.00;3.20;;;;;;;;;;4992293;28;20904;-50
2021/06/19 03:25:48;;;;;;;6.43;4.20;;;;;;;;;;4992357;28;20404;-51
2021/06/19 03:28:15;;;;;;;3.33;3.13;;;;;;;;;;4991945;28;20770;-52
2021/06/19 03:30:42;;;;;;;3.50;3.20;;;;;;;;;;4992188;28;20495;-49
2021/06/19 03:33:08;;;;;;;4.13;2.90;;;;;;;;;;4991878;28;20773;-52
2021/06/19 03:35:34;;;;;;;5.33;2.90;;;;;;;;;;4992205;28;20462;-50
2021/06/19 03:38:00;;;;;;;3.03;2.73;;;;;;;;;;4991800;28;20416;-50
2021/06/19 03:40:27;;;;;;;4.40;3.20;;;;;;;;;;4992068;28;20415;-49
2021/06/19 03:42:54;;;;;;;3.80;3.50;;;;;;;;;;4991717;28;20427;-49
2021/06/19 03:45:21;;;;;;;3.10;2.80;;;;;;;;;;4991956;28;20408;-51
2021/06/19 03:47:47;;;;;;;5.07;2.90;;;;;;;;;;4991633;28;20881;-49
2021/06/19 03:50:18;;;;;;;5.20;2.70;;;;;;;;;;4991952;28;20415;-49
2021/06/19 03:52:44;;;;;;;2.90;2.30;;;;;;;;;;4991528;28;20466;-52
2021/06/19 03:55:11;;;;;;;3.63;2.70;;;;;;;;;;4991694;28;20593;-50
2021/06/19 03:57:37;;;;;;;5.50;2.57;;;;;;;;;;4991555;28;20679;-49
2021/06/19 04:00:07;;;;;;;6.90;2.33;;;;;;;;;;4991732;28;20406;-52
2021/06/19 04:02:33;;;;;;;2.90;2.70;;;;;;;;;;4973959;28;20440;-52
2021/06/19 04:04:59;;;;;;;3.47;2.60;;;;;;;;;;4991721;28;20419;-52
2021/06/19 04:07:25;;;;;;;2.80;2.60;;;;;;;;;;4991308;28;20462;-52
2021/06/19 04:09:53;;;;;;;3.80;2.87;;;;;;;;;;4991588;28;20408;-49
2021/06/19 04:12:21;;;;;;;2.43;2.10;;;;;;;;;;4991455;28;20431;-50
2021/06/19 04:14:47;;;;;;;2.87;2.60;;;;;;;;;;4991490;28;21017;-50
2021/06/19 04:17:13;;;;;;;3.83;2.67;;;;;;;;;;4991175;28;20400;-52
2021/06/19 04:19:39;;;;;;;3.30;2.40;;;;;;;;;;4991271;28;20396;-52
2021/06/19 04:22:06;;;;;;;1.93;1.83;;;;;;;;;;4991477;28;20785;-50
2021/06/19 04:24:32;;;;;;;4.17;1.73;;;;;;;;;;4991211;28;20466;-49
2021/06/19 04:26:58;;;;;;;2.43;2.23;;;;;;;;;;4991421;28;20412;-49
2021/06/19 04:29:27;;;;;;;4.23;2.00;;;;;;;;;;4991219;28;20419;-49
2021/06/19 04:31:53;;;;;;;2.20;2.00;;;;;;;;;;4991313;28;20428;-53
2021/06/19 04:34:19;;;;;;;3.17;2.10;;;;;;;;;;4991119;28;20412;-53
2021/06/19 04:36:45;;;;;;;2.27;1.73;;;;;;;;;;4991205;28;20411;-53
2021/06/19 04:39:11;;;;;;;1.97;1.80;;;;;;;;;;4991278;28;20426;-52
2021/06/19 04:41:49;;;;;;;2.13;1.77;;;;;;;;;;4991422;28;20462;-49
2021/06/19 04:44:25;;;;;;;2.73;2.00;;;;;;;;;;4991369;28;20412;-54
2021/06/19 04:46:52;;;;;;;2.33;1.83;;;;;;;;;;4991148;28;20892;-51
2021/06/19 04:49:18;;;;;;;2.93;1.90;;;;;;;;;;4991182;28;20415;-50
2021/06/19 04:51:44;;;;;;;2.80;1.90;;;;;;;;;;4991220;28;20956;-49
2021/06/19 04:54:12;;;;;;;1.90;1.80;;;;;;;;;;4990875;28;20519;-49
2021/06/19 04:56:39;;;;;;;1.90;1.80;;;;;;;;;;4991007;28;20404;-52
2021/06/19 04:59:05;;;;;;;1.67;1.57;;;;;;;;;;4991062;28;20888;-49
2021/06/19 05:01:31;;;;;;;3.23;2.00;;;;;;;;;;4991097;28;20419;-50
2021/06/19 05:03:57;;;;;;;4.40;1.90;;;;;;;;;;4990995;28;20404;-50
2021/06/19 05:06:23;;;;;;;2.00;1.80;;;;;;;;;;4990813;28;20458;-49
2021/06/19 05:08:49;;;;;;;2.10;2.00;;;;;;;;;;4991036;28;20747;-50
2021/06/19 05:11:15;;;;;;;2.90;2.00;;;;;;;;;;4990822;28;20404;-50
2021/06/19 05:13:40;;;;;;;3.30;2.20;;;;;;;;;;4990921;28;20407;-50
2021/06/19 05:16:06;;;;;;;4.67;2.03;;;;;;;;;;4990457;28;20451;-51
2021/06/19 05:18:32;;;;;;;2.07;1.80;;;;;;;;;;4990939;28;20499;-53
2021/06/19 05:20:58;;;;;;;1.87;1.77;;;;;;;;;;4990758;28;20416;-52
2021/06/19 05:23:24;;;;;;;3.13;2.30;;;;;;;;;;4990857;28;20400;-50
2021/06/19 05:25:50;;;;;;;2.40;1.80;;;;;;;;;;4990619;28;20423;-49
2021/06/19 05:28:17;;;;;;;2.70;1.80;;;;;;;;;;4990778;28;20439;-50
2021/06/19 05:30:43;;;;;;;3.33;1.83;;;;;;;;;;4990831;28;20499;-55
2021/06/19 05:33:09;;;;;;;7.13;1.90;;;;;;;;;;4994240;28;20855;-49
2021/06/19 05:35:35;;;;;;;3.70;1.87;;;;;;;;;;4994186;28;20794;-49
2021/06/19 05:38:01;;;;;;;2.10;1.97;;;;;;;;;;4994226;28;20404;-50
2021/06/19 05:40:27;;;;;;;2.27;2.07;;;;;;;;;;4994160;28;20782;-50
2021/06/19 05:42:53;;;;;;;2.07;1.97;;;;;;;;;;4994077;28;20926;-51
2021/06/19 05:45:19;;;;;;;2.17;2.07;;;;;;;;;;4994197;28;20439;-49
2021/06/19 05:47:45;;;;;;;2.17;2.07;;;;;;;;;;4993827;28;20408;-50
2021/06/19 05:50:12;;;;;;;1.93;1.83;;;;;;;;;;4994364;28;20408;-50
2021/06/19 05:52:38;;;;;;;2.13;1.80;;;;;;;;;;4994317;28;20443;-52
2021/06/19 05:55:05;;;;;;;4.30;1.73;;;;;;;;;;4993906;28;20966;-52
2021/06/19 05:57:30;;;;;;;1.93;1.83;;;;;;;;;;4993653;28;20411;-52
2021/06/19 05:59:57;;;;;;;1.90;1.80;;;;;;;;;;4993976;28;20793;-52
2021/06/19 06:02:23;;;;;;;2.10;2.00;;;;;;;;;;4993842;28;20559;-53
2021/06/19 06:04:48;;;;;;;3.33;1.80;;;;;;;;;;4993899;28;20483;-51
2021/06/19 06:07:14;;;;;;;4.30;1.90;;;;;;;;;;4993508;28;20396;-52
2021/06/19 06:09:40;;;;;;;2.10;2.00;;;;;;;;;;4993823;28;20415;-51
2021/06/19 06:12:07;;;;;;;1.77;1.67;;;;;;;;;;4993507;28;20458;-51
2021/06/19 06:14:33;;;;;;;1.90;1.80;;;;;;;;;;4993617;28;20479;-51
2021/06/19 06:16:59;;;;;;;1.60;1.50;;;;;;;;;;4993222;28;20401;-50
2021/06/19 06:19:25;;;;;;;2.20;1.90;;;;;;;;;;4993630;28;20414;-52
2021/06/19 06:21:51;;;;;;;2.60;2.30;;;;;;;;;;4993548;28;20424;-52
2021/06/19 06:24:17;;;;;;;7.83;2.20;;;;;;;;;;4993512;28;20878;-50
2021/06/19 06:26:44;;;;;;;4.00;1.93;;;;;;;;;;4993352;28;20496;-51
2021/06/19 06:29:10;;;;;;;1.70;1.60;;;;;;;;;;4993400;28;20411;-54
2021/06/19 06:31:36;;;;;;;2.80;1.93;;;;;;;;;;4993246;28;20428;-51
2021/06/19 06:34:03;;;;;;;1.93;1.83;;;;;;;;;;4993481;28;20411;-52
2021/06/19 06:36:29;;;;;;;3.10;1.77;;;;;;;;;;4993098;28;20466;-52
2021/06/19 06:38:57;;;;;;;1.57;1.47;;;;;;;;;;4993357;28;20396;-51
2021/06/19 06:41:24;;;;;;;2.03;1.77;;;;;;;;;;4993178;28;20432;-52
2021/06/19 06:43:50;;;;;;;1.80;1.70;;;;;;;;;;4991737;28;20455;-50
2021/06/19 06:46:16;;;;;;;1.70;1.60;;;;;;;;;;4993118;28;20408;-50
2021/06/19 06:48:42;;;;;;;1.60;1.50;;;;;;;;;;4993060;28;20776;-50
2021/06/19 06:51:08;;;;;;;2.60;1.70;;;;;;;;;;4993217;28;20415;-51
2021/06/19 06:53:34;;;;;;;2.10;1.53;;;;;;;;;;4992952;28;20428;-52
2021/06/19 06:56:00;;;;;;;1.80;1.70;;;;;;;;;;4992889;28;21030;-52
2021/06/19 06:58:26;;;;;;;3.30;2.30;;;;;;;;;;4992681;28;20400;-52
2021/06/19 07:00:52;;;;;;;1.90;1.80;;;;;;;;;;4992941;28;20411;-53
2021/06/19 07:03:18;;;;;;;1.77;1.40;;;;;;;;;;4992404;28;20420;-52
2021/06/19 07:05:44;;;;;;;2.17;1.60;;;;;;;;;;4993017;28;20405;-52
2021/06/19 07:08:10;;;;;;;1.47;1.37;;;;;;;;;;4992763;28;20411;-51
2021/06/19 07:10:36;;;;;;;1.97;1.87;;;;;;;;;;4993028;28;20400;-52
2021/06/19 07:13:02;;;;;;;5.50;1.90;;;;;;;;;;4992832;28;20431;-52
2021/06/19 07:15:28;;;;;;;2.20;1.50;;;;;;;;;;4992564;28;20550;-51
2021/06/19 07:17:54;;;;;;;1.70;1.60;;;;;;;;;;4992290;28;20400;-52
2021/06/19 07:20:20;;;;;;;2.20;1.70;;;;;;;;;;4992352;28;20409;-51
2021/06/19 07:22:46;;;;;;;2.03;1.93;;;;;;;;;;4992405;28;20423;-52
2021/06/19 07:25:13;;;;;;;3.60;1.70;;;;;;;;;;4992301;28;20988;-53
2021/06/19 07:27:39;;;;;;;1.77;1.67;;;;;;;;;;4992172;28;20900;-51
2021/06/19 07:30:06;;;;;;;2.77;1.80;;;;;;;;;;4992368;28;20485;-51
2021/06/19 07:32:32;;;;;;;1.87;1.77;;;;;;;;;;4992114;28;20446;-52
2021/06/19 07:34:58;;;;;;;3.47;1.50;;;;;;;;;;4991944;28;20451;-52
2021/06/19 07:37:24;;;;;;;4.60;2.13;;;;;;;;;;4992233;28;20427;-51
2021/06/19 07:39:53;;;;;;;2.80;2.00;;;;;;;;;;4992084;28;20436;-51
2021/06/19 07:42:19;;;;;;;1.87;1.50;;;;;;;;;;4991958;28;20427;-52
2021/06/19 07:44:45;;;;;;;4.50;1.80;;;;;;;;;;4991864;28;20416;-53
2021/06/19 07:47:11;;;;;;;1.57;1.47;;;;;;;;;;4991833;28;20407;-52
2021/06/19 07:49:37;;;;;;;1.93;1.83;;;;;;;;;;4991905;28;20413;-53
2021/06/19 07:52:03;;;;;;;1.90;1.70;;;;;;;;;;4991646;28;20424;-52
2021/06/19 07:54:29;;;;;;;1.60;1.50;;;;;;;;;;4991431;28;20891;-51
2021/06/19 07:56:55;;;;;;;2.00;1.43;;;;;;;;;;4991551;28;20404;-51
2021/06/19 07:59:21;;;;;;;1.67;1.57;;;;;;;;;;4991897;28;20492;-52
2021/06/19 08:01:48;;;;;;;1.73;1.63;;;;;;;;;;4991544;28;20424;-51
2021/06/19 08:04:13;;;;;;;4.30;4.00;;;;;;;;;;4991634;28;20511;-50
2021/06/19 08:06:39;;;;;;;4.43;1.60;;;;;;;;;;4991374;28;20491;-51
2021/06/19 08:09:06;;;;;;;2.00;1.90;;;;;;;;;;4974156;28;20422;-51
2021/06/19 08:11:32;;;;;;;10.23;2.07;;;;;;;;;;4991329;28;20954;-50
2021/06/19 08:13:58;;;;;;;1.90;1.40;;;;;;;;;;4991746;28;20408;-51
2021/06/19 08:16:26;;;;;;;1.63;1.53;;;;;;;;;;4991078;28;20555;-51
2021/06/19 08:18:52;;;;;;;2.60;1.70;;;;;;;;;;4991558;28;20396;-52
2021/06/19 08:21:18;;;;;;;1.70;1.60;;;;;;;;;;4991234;28;20788;-51
2021/06/19 08:23:44;;;;;;;3.67;1.60;;;;;;;;;;4991410;28;20784;-52
2021/06/19 08:26:10;;;;;;;3.27;1.60;;;;;;;;;;4991065;28;20403;-51
2021/06/19 08:28:36;;;;;;;1.93;1.30;;;;;;;;;;4991432;28;20491;-51
2021/06/19 08:31:03;;;;;;;1.60;1.50;;;;;;;;;;4991225;28;20420;-52
2021/06/19 08:33:30;;;;;;;3.27;1.20;;;;;;;;;;4991535;28;20416;-52
2021/06/19 08:35:56;;;;;;;2.20;1.30;;;;;;;;;;4991232;28;20459;-52
2021/06/19 08:38:22;;;;;;;1.27;1.17;;;;;;;;;;4991280;28;20403;-52
2021/06/19 08:40:48;;;;;;;2.80;1.40;;;;;;;;;;4991549;28;20396;-52
2021/06/19 08:43:14;;;;;;;1.40;1.30;;;;;;;;;;4991497;28;20420;-53
2021/06/19 08:45:40;;;;;;;1.10;1.10;;;;;;;;;;4991649;28;20885;-53
2021/06/19 08:48:07;;;;;;;2.33;0.90;;;;;;;;;;4991273;28;20506;-54
2021/06/19 08:50:36;;;;;;;1.00;0.90;;;;;;;;;;4991356;28;20399;-53
2021/06/19 08:53:02;;;;;;;0.80;0.80;;;;;;;;;;4990897;28;20959;-55
2021/06/19 08:55:28;;;;;;;10.80;1.33;;;;;;;;;;4991158;28;20455;-55
2021/06/19 08:57:54;;;;;;;1.33;1.23;;;;;;;;;;4990973;28;20411;-55
2021/06/19 09:00:21;;;;;;;1.83;1.10;;;;;;;;;;4991236;28;20172;-53
2021/06/19 09:02:48;;;;;;;1.73;1.10;;;;;;;;;;4990971;28;20428;-54
2021/06/19 09:05:15;;;;;;;1.20;1.10;;;;;;;;;;4991136;28;20400;-54
2021/06/19 09:07:44;;;;;;;1.13;1.07;;;;;;;;;;4993944;28;20439;-53
2021/06/19 09:10:16;;;;;;;1.27;1.00;;;;;;;;;;4995141;28;20419;-52
2021/06/19 09:12:54;;;;;;;3.73;1.00;;;;;;;;;;4994533;28;20470;-51
2021/06/19 09:15:20;;;;;;;1.70;1.20;;;;;;;;;;4994840;28;20455;-52
2021/06/19 09:18:01;;;;;;;1.73;1.10;;;;;;;;;;4994264;28;20404;-51
2021/06/19 09:20:40;;;;;;;1.70;1.53;;;;;;;;;;4993882;28;20459;-54
2021/06/19 09:23:07;;;;;;;1.80;1.30;;;;;;;;;;4994545;28;20708;-52
2021/06/19 09:25:34;;;;;;;4.03;1.10;;;;;;;;;;4994688;28;20460;-51
2021/06/19 09:28:00;;;;;;;1.43;1.00;;;;;;;;;;4994346;28;20412;-52
2021/06/19 09:30:28;;;;;;;1.37;1.00;;;;;;;;;;4994481;28;20415;-52
2021/06/19 09:32:55;;;;;;;1.00;1.00;;;;;;;;;;4994435;28;20427;-53
2021/06/19 09:35:32;;;;;;;1.30;1.20;;;;;;;;;;4994401;28;20461;-52
2021/06/19 09:38:03;;;;;;;2.27;1.00;;;;;;;;;;4994198;28;20403;-53
2021/06/19 09:40:31;;;;;;;1.20;1.10;;;;;;;;;;4994184;28;20403;-52
2021/06/19 09:43:07;;;;;;;0.90;0.90;;;;;;;;;;4994081;28;20506;-53
2021/06/19 09:45:33;;;;;;;1.17;1.17;;;;;;;;;;4994036;28;20427;-52
2021/06/19 09:47:59;;;;;;;1.07;1.07;;;;;;;;;;4994125;28;20827;-52
2021/06/19 09:50:25;;;;;;;1.87;0.97;;;;;;;;;;4993975;28;20428;-53
2021/06/19 09:52:52;;;;;;;2.80;1.23;;;;;;;;;;4993846;28;20217;-52
2021/06/19 09:55:18;;;;;;;1.17;1.07;;;;;;;;;;4993850;28;20494;-52
2021/06/19 09:57:45;;;;;;;0.93;0.93;;;;;;;;;;4993724;28;20927;-53
2021/06/19 10:00:15;;;;;;;1.97;0.87;;;;;;;;;;4993824;28;20405;-54
2021/06/19 10:02:42;;;;;;;2.17;1.13;;;;;;;;;;4993907;28;20460;-53
2021/06/19 10:05:08;;;;;;;1.10;1.10;;;;;;;;;;4993614;28;20929;-51
2021/06/19 10:07:35;;;;;;;3.33;1.10;;;;;;;;;;4993619;28;20755;-52
2021/06/19 10:10:01;;;;;;;1.20;1.10;;;;;;;;;;4993737;28;20982;-51
2021/06/19 10:12:31;;;;;;;2.10;1.13;;;;;;;;;;4993439;28;20481;-53
2021/06/19 10:15:00;;;;;;;0.90;0.90;;;;;;;;;;4993573;28;20466;-52
2021/06/19 10:17:33;;;;;;;2.40;1.20;;;;;;;;;;4993030;28;20427;-52
2021/06/19 10:20:02;;;;;;;2.10;1.13;;;;;;;;;;4993512;28;20882;-52
2021/06/19 10:22:29;;;;;;;2.00;1.30;;;;;;;;;;4993333;28;20431;-52
2021/06/19 10:24:58;;;;;;;1.13;1.10;;;;;;;;;;4993381;28;20461;-52
2021/06/19 10:27:28;;;;;;;2.07;1.20;;;;;;;;;;4993371;28;20502;-54
2021/06/19 10:29:55;;;;;;;1.10;0.93;;;;;;;;;;4993667;28;20411;-54
2021/06/19 10:32:37;;;;;;;1.83;1.10;;;;;;;;;;4993132;28;20424;-51
2021/06/19 10:35:04;;;;;;;1.10;1.00;;;;;;;;;;4992906;28;20448;-51
2021/06/19 10:37:31;;;;;;;2.70;1.23;;;;;;;;;;4992966;28;20874;-52
2021/06/19 10:39:57;;;;;;;1.97;1.10;;;;;;;;;;4993308;28;20904;-52
2021/06/19 10:42:24;;;;;;;1.10;0.93;;;;;;;;;;4992975;28;20416;-53
2021/06/19 10:44:52;;;;;;;0.90;0.90;;;;;;;;;;4993237;28;20527;-52
2021/06/19 10:47:19;;;;;;;2.20;1.10;;;;;;;;;;4992907;28;20400;-52
2021/06/19 10:49:45;;;;;;;2.13;1.00;;;;;;;;;;4993083;28;20467;-52
2021/06/19 10:52:24;;;;;;;3.60;1.10;;;;;;;;;;4992949;28;20430;-52
2021/06/19 10:55:09;;;;;;;1.40;0.97;;;;;;;;;;4993263;28;20944;-52
2021/06/19 10:57:44;;;;;;;1.17;0.83;;;;;;;;;;4992911;28;20536;-53
2021/06/19 11:00:28;;;;;;;1.37;1.10;;;;;;;;;;4992910;28;20483;-52
2021/06/19 11:02:55;;;;;;;4.23;1.17;;;;;;;;;;4992616;28;20931;-52
2021/06/19 11:05:40;;;;;;;1.13;1.03;;;;;;;;;;4992856;28;20408;-53
2021/06/19 11:08:06;;;;;;;2.37;1.20;;;;;;;;;;4992434;28;20469;-52
2021/06/19 11:10:48;;;;;;;3.47;1.33;;;;;;;;;;4992586;28;20432;-52
2021/06/19 11:13:29;;;;;;;1.70;1.60;;;;;;;;;;4992400;28;20416;-54
2021/06/19 11:15:56;;;;;;;0.90;0.90;;;;;;;;;;4992466;28;20518;-51
2021/06/19 11:18:40;;;;;;;1.17;1.07;;;;;;;;;;4992575;28;20415;-53
2021/06/19 11:21:10;;;;;;;1.80;1.20;;;;;;;;;;4992196;28;20910;-52
2021/06/19 11:23:55;;;;;;;4.90;1.10;;;;;;;;;;4992536;28;20404;-53
2021/06/19 11:26:39;;;;;;;1.10;1.00;;;;;;;;;;4992135;28;20479;-51
2021/06/19 11:29:24;;;;;;;0.90;0.90;;;;;;;;;;4991491;28;20458;-51
2021/06/19 11:31:50;;;;;;;1.47;1.00;;;;;;;;;;4992322;28;20423;-53
2021/06/19 11:34:39;;;;;;;1.37;1.20;;;;;;;;;;4991951;28;20450;-52
2021/06/19 11:37:05;;;;;;;2.30;1.00;;;;;;;;;;4979353;28;20523;-51
2021/06/19 11:39:36;;;;;;;2.43;1.40;;;;;;;;;;4991888;28;20400;-52
2021/06/19 11:42:02;;;;;;;1.43;1.10;;;;;;;;;;4992042;28;20462;-53
2021/06/19 11:44:32;;;;;;;1.20;1.03;;;;;;;;;;4991864;28;20389;-54
2021/06/19 11:46:59;;;;;;;1.37;1.00;;;;;;;;;;4991522;28;20396;-53
2021/06/19 11:49:25;;;;;;;1.20;1.10;;;;;;;;;;4991906;28;20439;-51
2021/06/19 11:51:52;;;;;;;0.90;0.90;;;;;;;;;;4992039;28;20662;-53
2021/06/19 11:54:18;;;;;;;2.90;1.43;;;;;;;;;;4992305;28;20887;-53
2021/06/19 11:56:44;;;;;;;5.03;1.00;;;;;;;;;;4991417;28;20447;-53
2021/06/19 11:59:10;;;;;;;1.57;1.30;;;;;;;;;;4991675;28;20896;-52
2021/06/19 12:01:38;;;;;;;2.53;1.00;;;;;;;;;;4991481;28;20424;-51
2021/06/19 12:04:13;;;;;;;1.93;1.73;;;;;;;;;;4991606;28;20431;-52
2021/06/19 12:06:39;;;;;;;1.43;1.20;;;;;;;;;;4991317;28;20396;-54
2021/06/19 12:09:19;;;;;;;1.20;1.10;;;;;;;;;;4991393;28;20399;-52
2021/06/19 12:11:46;;;;;;;6.50;1.40;;;;;;;;;;4991625;28;20416;-52
2021/06/19 12:14:17;;;;;;;2.80;1.50;;;;;;;;;;4991562;28;20410;-53
2021/06/19 12:16:43;;;;;;;1.57;1.20;;;;;;;;;;4990994;28;20452;-55
2021/06/19 12:19:09;;;;;;;4.20;1.20;;;;;;;;;;4991409;28;20760;-55
2021/06/19 12:21:39;;;;;;;1.20;1.10;;;;;;;;;;4991304;28;20762;-50
2021/06/19 12:24:21;;;;;;;3.53;1.00;;;;;;;;;;4991317;28;20400;-54
2021/06/19 12:26:57;;;;;;;4.30;1.50;;;;;;;;;;4990895;28;20964;-53
2021/06/19 12:29:38;;;;;;;0.93;0.93;;;;;;;;;;4991151;28;20487;-52
2021/06/19 12:32:41;;;;;;;6.80;6.20;;;;;;;;;;4991134;28;20477;-51
2021/06/19 12:35:11;;;;;;;1.40;1.30;;;;;;;;;;4893214;29;20463;-52
2021/06/19 12:37:39;;;;;;;1.70;1.60;;;;;;;;;;4975032;28;20423;-51
2021/06/19 12:40:06;;;;;;;2.80;1.53;;;;;;;;;;4991853;28;20491;-51
2021/06/19 12:42:37;;;;;;;1.33;1.23;;;;;;;;;;4995187;28;20815;-51
2021/06/19 12:45:09;;;;;;;3.20;1.10;;;;;;;;;;4995195;28;20900;-52
2021/06/19 12:47:37;;;;;;;1.40;1.30;;;;;;;;;;4995281;28;20420;-53
2021/06/19 12:50:04;;;;;;;2.50;1.30;;;;;;;;;;4995206;28;20999;-53
2021/06/19 12:52:30;;;;;;;2.50;1.20;;;;;;;;;;4995167;28;20443;-52
2021/06/19 12:55:12;;;;;;;3.53;1.30;;;;;;;;;;4995210;28;20447;-51
2021/06/19 12:57:39;;;;;;;1.50;1.40;;;;;;;;;;4995311;28;20414;-52
2021/06/19 13:00:06;;;;;;;1.40;1.30;;;;;;;;;;4995247;28;20487;-50
2021/06/19 13:02:33;;;;;;;2.63;1.40;;;;;;;;;;4995050;28;20427;-52
2021/06/19 13:04:59;;;;;;;1.90;1.27;;;;;;;;;;4994951;28;20404;-51
2021/06/19 13:07:29;;;;;;;1.23;1.17;;;;;;;;;;4994680;28;20415;-51
2021/06/19 13:09:55;;;;;;;2.13;1.53;;;;;;;;;;4994858;28;20395;-51
2021/06/19 13:12:22;;;;;;;4.90;1.40;;;;;;;;;;4994790;28;20821;-51
2021/06/19 13:15:07;;;;;;;4.97;1.80;;;;;;;;;;4994639;28;20451;-51
2021/06/19 13:17:42;;;;;;;9.80;1.27;;;;;;;;;;4994569;28;20399;-51
2021/06/19 13:20:23;;;;;;;4.13;1.50;;;;;;;;;;4994697;28;20391;-50
2021/06/19 13:23:06;;;;;;;2.03;1.40;;;;;;;;;;4994659;28;20899;-51
2021/06/19 13:25:54;;;;;;;1.50;1.40;;;;;;;;;;4994582;28;20463;-51
2021/06/19 13:28:32;;;;;;;1.50;1.37;;;;;;;;;;4994653;28;20923;-51
2021/06/19 13:31:11;;;;;;;2.30;1.00;;;;;;;;;;4994344;28;20402;-49
2021/06/19 13:33:41;;;;;;;2.33;1.40;;;;;;;;;;4994452;28;20915;-51
2021/06/19 13:36:17;;;;;;;2.60;1.57;;;;;;;;;;4994097;28;20462;-51
2021/06/19 13:38:50;;;;;;;1.30;1.20;;;;;;;;;;4994313;28;20404;-50
2021/06/19 13:41:19;;;;;;;1.40;1.30;;;;;;;;;;4991464;28;20478;-50
2021/06/19 13:43:45;;;;;;;2.80;1.60;;;;;;;;;;4994259;28;20430;-51
2021/06/19 13:46:11;;;;;;;5.07;1.63;;;;;;;;;;4993828;28;20884;-50
2021/06/19 13:48:37;;;;;;;1.73;1.53;;;;;;;;;;4994175;28;20892;-51
2021/06/19 13:51:03;;;;;;;3.77;1.83;;;;;;;;;;4993782;28;20408;-49
2021/06/19 13:53:29;;;;;;;3.27;1.73;;;;;;;;;;4993284;28;20423;-49
2021/06/19 13:55:55;;;;;;;1.67;1.57;;;;;;;;;;4993645;28;21027;-50
2021/06/19 13:58:21;;;;;;;1.80;1.70;;;;;;;;;;4992480;28;20419;-51
2021/06/19 14:00:47;;;;;;;2.03;1.83;;;;;;;;;;4993827;28;20492;-50
2021/06/19 14:03:13;;;;;;;2.03;1.60;;;;;;;;;;4993522;28;20463;-51
2021/06/19 14:05:39;;;;;;;5.20;2.07;;;;;;;;;;4993678;28;20412;-51
2021/06/19 14:08:05;;;;;;;1.53;1.43;;;;;;;;;;4993477;28;20412;-51
2021/06/19 14:10:31;;;;;;;2.20;2.00;;;;;;;;;;4993740;28;20177;-52
2021/06/19 14:12:58;;;;;;;1.60;1.50;;;;;;;;;;4993462;28;20817;-52
2021/06/19 14:15:24;;;;;;;1.90;1.67;;;;;;;;;;4993617;28;20451;-50
2021/06/19 14:17:51;;;;;;;3.10;1.90;;;;;;;;;;4993345;28;20487;-51
2021/06/19 14:20:17;;;;;;;7.80;1.80;;;;;;;;;;4993643;28;20411;-50
2021/06/19 14:22:43;;;;;;;3.70;1.60;;;;;;;;;;4993377;28;20424;-50
2021/06/19 14:25:09;;;;;;;3.93;1.57;;;;;;;;;;4993656;28;20502;-51
2021/06/19 14:27:35;;;;;;;3.13;1.80;;;;;;;;;;4993466;28;20450;-50
2021/06/19 14:30:01;;;;;;;1.80;1.70;;;;;;;;;;4993573;28;20408;-51
2021/06/19 14:32:31;;;;;;;1.50;1.40;;;;;;;;;;4993550;28;20424;-51
2021/06/19 14:34:59;;;;;;;1.73;1.63;;;;;;;;;;4993357;28;20456;-51
2021/06/19 14:37:25;;;;;;;3.73;1.77;;;;;;;;;;4993364;28;20404;-53
2021/06/19 14:39:51;;;;;;;6.90;1.67;;;;;;;;;;4993346;28;20431;-50
2021/06/19 14:42:17;;;;;;;3.30;1.60;;;;;;;;;;4993322;28;20982;-49
2021/06/19 14:44:43;;;;;;;1.67;1.50;;;;;;;;;;4993180;28;20910;-49
2021/06/19 14:47:09;;;;;;;4.80;1.70;;;;;;;;;;4992985;28;20400;-49